createdAt,value
2018-03-02T00:01:01.266Z,30.47
2018-03-02T00:03:30.388Z,30.57
2018-03-02T00:05:59.482Z,30.57
2018-03-02T00:08:28.586Z,31.93
2018-03-02T00:10:57.700Z,31.03
2018-03-02T00:13:26.789Z,31.37
2018-03-02T00:15:55.894Z,31.47
2018-03-02T00:18:24.990Z,30.73
2018-03-02T00:20:54.110Z,30.10
2018-03-02T00:23:23.226Z,30.97
2018-03-02T00:25:52.338Z,33.40
2018-03-02T00:28:22.191Z,32.43
2018-03-02T00:30:51.324Z,31.63
2018-03-02T00:33:20.422Z,32.73
2018-03-02T00:35:49.528Z,32.47
2018-03-02T00:38:18.629Z,32.50
2018-03-02T00:40:48.486Z,31.13
2018-03-02T00:43:17.633Z,30.77
2018-03-02T00:45:46.727Z,31.93
2018-03-02T00:48:15.830Z,31.03
2018-03-02T00:50:45.693Z,32.33
2018-03-02T00:53:14.877Z,31.90
2018-03-02T00:55:43.970Z,31.33
2018-03-02T00:58:13.076Z,32.87
2018-03-02T01:00:42.166Z,29.93
2018-03-02T01:03:11.306Z,34.70
2018-03-02T01:05:41.171Z,31.07
2018-03-02T01:08:10.261Z,31.47
2018-03-02T01:10:39.378Z,32.90
2018-03-02T01:13:09.954Z,31.70
2018-03-02T01:15:39.082Z,32.40
2018-03-02T01:18:08.976Z,33.40
2018-03-02T01:20:38.872Z,32.37
2018-03-02T01:23:07.954Z,32.17
2018-03-02T01:25:37.830Z,31.23
2018-03-02T01:28:06.950Z,31.27
2018-03-02T01:30:36.059Z,33.90
2018-03-02T01:33:05.143Z,32.10
2018-03-02T01:35:34.279Z,31.30
2018-03-02T01:38:03.357Z,32.50
2018-03-02T01:40:32.468Z,32.67
2018-03-02T01:43:01.702Z,33.33
2018-03-02T01:45:30.794Z,33.83
2018-03-02T01:47:59.905Z,30.57
2018-03-02T01:50:29.003Z,31.17
2018-03-02T01:52:58.126Z,32.90
2018-03-02T01:55:27.215Z,29.80
2018-03-02T01:57:56.329Z,33.00
2018-03-02T02:00:25.432Z,30.67
2018-03-02T02:02:54.525Z,32.00
2018-03-02T02:05:23.653Z,32.57
2018-03-02T02:07:53.516Z,33.80
2018-03-02T02:10:22.620Z,32.80
2018-03-02T02:12:51.713Z,34.40
2018-03-02T02:15:20.834Z,33.80
2018-03-02T02:17:49.939Z,31.77
2018-03-02T02:20:19.824Z,31.60
2018-03-02T02:22:48.948Z,31.17
2018-03-02T02:25:18.055Z,31.17
2018-03-02T02:27:47.925Z,32.67
2018-03-02T02:30:17.054Z,31.00
2018-03-02T02:32:46.910Z,30.93
2018-03-02T02:35:16.028Z,31.80
2018-03-02T02:37:45.912Z,32.50
2018-03-02T02:40:15.003Z,33.77
2018-03-02T02:42:44.115Z,33.47
2018-03-02T02:45:13.229Z,30.60
2018-03-02T02:47:42.345Z,34.10
2018-03-02T02:50:11.441Z,31.20
2018-03-02T02:52:40.598Z,30.77
2018-03-02T02:55:09.705Z,31.03
2018-03-02T02:57:38.809Z,31.80
2018-03-02T03:00:07.915Z,31.87
2018-03-02T03:02:37.032Z,30.37
2018-03-02T03:05:06.145Z,31.43
2018-03-02T03:07:36.024Z,33.13
2018-03-02T03:10:05.128Z,32.70
2018-03-02T03:12:34.398Z,32.20
2018-03-02T03:15:03.494Z,30.10
2018-03-02T03:17:33.386Z,32.07
2018-03-02T03:20:02.503Z,30.30
2018-03-02T03:22:31.597Z,31.03
2018-03-02T03:25:00.787Z,31.80
2018-03-02T03:27:29.871Z,30.23
2018-03-02T03:29:58.992Z,32.67
2018-03-02T03:32:28.082Z,30.30
2018-03-02T03:34:57.201Z,30.40
2018-03-02T03:37:26.299Z,32.30
2018-03-02T03:39:55.414Z,30.40
2018-03-02T03:42:24.541Z,30.17
2018-03-02T03:44:53.651Z,32.40
2018-03-02T03:47:22.746Z,31.43
2018-03-02T03:49:51.871Z,30.70
2018-03-02T03:52:20.981Z,34.03
2018-03-02T03:54:50.133Z,31.37
2018-03-02T03:57:19.209Z,33.57
2018-03-02T03:59:49.075Z,31.97
2018-03-02T04:02:18.197Z,31.77
2018-03-02T04:04:47.315Z,31.87
2018-03-02T04:07:17.195Z,31.67
2018-03-02T04:09:46.287Z,33.00
2018-03-02T04:12:15.399Z,31.40
2018-03-02T04:14:44.502Z,31.27
2018-03-02T04:17:14.383Z,33.03
2018-03-02T04:19:43.491Z,32.37
2018-03-02T04:22:12.620Z,29.47
2018-03-02T04:24:42.488Z,31.90
2018-03-02T04:27:11.618Z,33.00
2018-03-02T04:29:40.703Z,31.50
2018-03-02T04:32:09.821Z,30.83
2018-03-02T04:34:39.690Z,33.93
2018-03-02T04:37:08.799Z,32.50
2018-03-02T04:39:37.904Z,31.43
2018-03-02T04:42:07.019Z,32.37
2018-03-02T04:44:36.906Z,29.83
2018-03-02T04:47:06.008Z,33.50
2018-03-02T04:49:35.130Z,30.97
2018-03-02T04:52:05.018Z,30.10
2018-03-02T04:54:34.113Z,29.87
2018-03-02T04:57:03.222Z,29.80
2018-03-02T04:59:32.347Z,31.33
2018-03-02T05:02:02.209Z,32.70
2018-03-02T05:04:31.319Z,32.17
2018-03-02T05:07:00.414Z,31.60
2018-03-02T05:09:29.533Z,29.37
2018-03-02T05:11:59.397Z,31.40
2018-03-02T05:14:28.525Z,30.73
2018-03-02T05:16:57.630Z,30.53
2018-03-02T05:19:26.736Z,29.70
2018-03-02T05:21:56.592Z,30.27
2018-03-02T05:24:25.692Z,32.00
2018-03-02T05:26:54.795Z,32.70
2018-03-02T05:29:23.934Z,28.53
2018-03-02T05:31:53.805Z,32.60
2018-03-02T05:34:22.930Z,33.00
2018-03-02T05:36:52.028Z,33.27
2018-03-02T05:39:21.180Z,33.30
2018-03-02T05:41:50.293Z,31.63
2018-03-02T05:44:19.442Z,31.10
2018-03-02T05:46:49.314Z,31.60
2018-03-02T05:49:18.422Z,33.30
2018-03-02T05:51:47.534Z,30.30
2018-03-02T05:54:17.397Z,34.07
2018-03-02T05:56:46.521Z,31.40
2018-03-02T05:59:15.620Z,32.47
2018-03-02T06:01:44.757Z,30.27
2018-03-02T06:04:14.638Z,33.20
2018-03-02T06:06:43.741Z,31.10
2018-03-02T06:09:12.849Z,31.50
2018-03-02T06:11:42.713Z,32.30
2018-03-02T06:14:12.589Z,31.57
2018-03-02T06:16:41.753Z,31.70
2018-03-02T06:19:10.834Z,31.83
2018-03-02T06:21:39.979Z,30.73
2018-03-02T06:24:09.832Z,35.20
2018-03-02T06:26:38.936Z,32.80
2018-03-02T06:29:08.058Z,31.97
2018-03-02T06:31:37.186Z,31.73
2018-03-02T06:34:07.071Z,34.83
2018-03-02T06:36:37.693Z,32.97
2018-03-02T06:39:06.816Z,33.50
2018-03-02T06:41:36.679Z,31.47
2018-03-02T06:44:05.810Z,32.07
2018-03-02T06:46:34.917Z,32.13
2018-03-02T06:49:04.790Z,31.83
2018-03-02T06:51:33.913Z,33.97
2018-03-02T06:54:03.029Z,32.57
2018-03-02T06:56:32.906Z,34.20
2018-03-02T06:59:02.004Z,33.37
2018-03-02T07:01:31.117Z,33.80
2018-03-02T07:04:00.232Z,31.87
2018-03-02T07:06:30.106Z,31.80
2018-03-02T07:08:59.206Z,33.77
2018-03-02T07:11:28.329Z,31.83
2018-03-02T07:13:58.225Z,30.23
2018-03-02T07:16:27.342Z,34.17
2018-03-02T07:18:58.196Z,31.90
2018-03-02T07:21:28.075Z,32.67
2018-03-02T07:23:57.200Z,34.63
2018-03-02T07:26:27.067Z,30.40
2018-03-02T07:28:56.956Z,33.60
2018-03-02T07:31:26.071Z,31.63
2018-03-02T07:33:55.161Z,34.97
2018-03-02T07:36:24.276Z,32.97
2018-03-02T07:38:53.370Z,31.10
2018-03-02T07:41:22.498Z,31.70
2018-03-02T07:43:52.362Z,31.67
2018-03-02T07:46:21.482Z,34.07
2018-03-02T07:48:50.587Z,33.63
2018-03-02T07:51:19.706Z,31.50
2018-03-02T07:53:49.613Z,34.80
2018-03-02T07:56:18.717Z,32.87
2018-03-02T07:58:48.602Z,34.33
2018-03-02T08:01:17.721Z,34.33
2018-03-02T08:03:47.590Z,32.53
2018-03-02T08:06:16.720Z,35.03
2018-03-02T08:08:46.610Z,30.80
2018-03-02T08:11:16.483Z,33.90
2018-03-02T08:13:45.642Z,34.13
2018-03-02T08:16:14.758Z,33.30
2018-03-02T08:18:44.990Z,34.00
2018-03-02T08:21:14.869Z,34.20
2018-03-02T08:23:44.001Z,32.57
2018-03-02T08:26:13.881Z,35.37
2018-03-02T08:28:42.997Z,34.53
2018-03-02T08:31:12.238Z,32.70
2018-03-02T08:33:41.531Z,32.97
2018-03-02T08:36:10.771Z,34.07
2018-03-02T08:38:39.869Z,32.67
2018-03-02T08:41:08.986Z,33.63
2018-03-02T08:43:38.966Z,32.17
2018-03-02T08:46:08.086Z,35.37
2018-03-02T08:48:37.202Z,36.80
2018-03-02T08:51:07.023Z,33.80
2018-03-02T08:53:36.870Z,33.33
2018-03-02T08:56:05.980Z,33.80
2018-03-02T08:58:35.113Z,37.87
2018-03-02T09:01:05.010Z,37.27
2018-03-02T09:03:34.135Z,33.90
2018-03-02T09:06:04.036Z,35.43
2018-03-02T09:08:33.181Z,35.67
2018-03-02T09:11:02.297Z,34.80
2018-03-02T09:13:31.415Z,35.83
2018-03-02T09:16:00.518Z,35.20
2018-03-02T09:18:29.622Z,38.00
2018-03-02T09:20:59.519Z,34.80
2018-03-02T09:23:28.649Z,34.00
2018-03-02T09:25:58.534Z,33.53
2018-03-02T09:28:27.639Z,37.30
2018-03-02T09:30:56.759Z,38.00
2018-03-02T09:33:25.853Z,38.77
2018-03-02T09:35:54.961Z,34.50
2018-03-02T09:38:24.061Z,33.83
2018-03-02T09:40:53.214Z,38.70
2018-03-02T09:43:22.345Z,36.83
2018-03-02T09:45:52.209Z,39.90
2018-03-02T09:48:21.334Z,39.93
2018-03-02T09:50:50.425Z,37.20
2018-03-02T09:53:20.301Z,36.23
2018-03-02T09:55:50.188Z,36.97
2018-03-02T09:58:19.270Z,38.77
2018-03-02T10:00:48.398Z,34.97
2018-03-02T10:03:17.534Z,36.90
2018-03-02T10:05:47.167Z,38.57
2018-03-02T10:08:17.039Z,38.53
2018-03-02T10:10:46.128Z,38.30
2018-03-02T10:13:15.238Z,40.70
2018-03-02T10:15:44.368Z,36.53
2018-03-02T10:18:14.237Z,38.60
2018-03-02T10:20:43.338Z,38.30
2018-03-02T10:23:12.473Z,38.30
2018-03-02T10:25:42.363Z,35.00
2018-03-02T10:28:11.441Z,38.53
2018-03-02T10:30:41.362Z,36.43
2018-03-02T10:33:10.468Z,36.53
2018-03-02T10:35:39.645Z,35.10
2018-03-02T10:38:09.476Z,38.60
2018-03-02T10:40:38.611Z,37.80
2018-03-02T10:43:07.712Z,36.33
2018-03-02T10:45:36.849Z,37.23
2018-03-02T10:48:05.992Z,37.53
2018-03-02T10:50:35.068Z,37.80
2018-03-02T10:53:04.181Z,37.10
2018-03-02T10:55:34.050Z,36.17
2018-03-02T10:58:03.139Z,35.00
2018-03-02T11:00:37.681Z,34.77
2018-03-02T11:03:06.780Z,39.27
2018-03-02T11:05:41.515Z,39.00
2018-03-02T11:08:10.611Z,34.80
2018-03-02T11:10:39.727Z,35.07
2018-03-02T11:13:09.573Z,37.00
2018-03-02T11:15:38.688Z,33.43
2018-03-02T11:18:07.796Z,35.10
2018-03-02T11:20:36.899Z,35.43
2018-03-02T11:23:06.003Z,39.80
2018-03-02T11:25:35.144Z,36.07
2018-03-02T11:28:04.992Z,38.13
2018-03-02T11:30:34.121Z,38.03
2018-03-02T11:33:04.730Z,37.17
2018-03-02T11:35:33.821Z,35.70
2018-03-02T11:38:02.930Z,37.77
2018-03-02T11:40:32.005Z,33.60
2018-03-02T11:43:01.117Z,35.23
2018-03-02T11:45:30.218Z,34.57
2018-03-02T11:47:59.334Z,35.90
2018-03-02T11:50:29.203Z,36.33
2018-03-02T11:52:58.316Z,37.73
2018-03-02T11:55:27.416Z,36.13
2018-03-02T11:57:56.572Z,37.17
2018-03-02T12:00:25.707Z,36.23
2018-03-02T12:02:54.792Z,35.33
2018-03-02T12:05:23.897Z,39.77
2018-03-02T12:07:52.989Z,39.20
2018-03-02T12:10:22.910Z,41.53
2018-03-02T12:12:51.993Z,39.70
2018-03-02T12:15:21.097Z,37.43
2018-03-02T12:17:50.193Z,38.07
2018-03-02T12:20:19.332Z,36.20
2018-03-02T12:22:49.208Z,35.73
2018-03-02T12:25:18.320Z,39.97
2018-03-02T12:27:47.393Z,36.43
2018-03-02T12:30:16.538Z,38.20
2018-03-02T12:32:46.406Z,38.40
2018-03-02T12:35:15.520Z,37.67
2018-03-02T12:37:44.634Z,42.63
2018-03-02T12:40:15.547Z,37.17
2018-03-02T12:42:44.655Z,34.20
2018-03-02T12:45:13.773Z,37.37
2018-03-02T12:47:43.644Z,38.27
2018-03-02T12:50:12.773Z,38.23
2018-03-02T12:52:42.628Z,38.23
2018-03-02T12:55:11.810Z,38.93
2018-03-02T12:57:40.856Z,36.50
2018-03-02T13:00:09.995Z,40.93
2018-03-02T13:02:39.130Z,38.73
2018-03-02T13:05:08.232Z,35.00
2018-03-02T13:07:37.354Z,38.73
2018-03-02T13:10:06.452Z,40.03
2018-03-02T13:12:35.556Z,38.97
2018-03-02T13:15:04.655Z,35.87
2018-03-02T13:17:34.522Z,37.90
2018-03-02T13:20:03.650Z,38.43
2018-03-02T13:22:43.257Z,38.47
2018-03-02T13:25:12.400Z,36.57
2018-03-02T13:27:59.203Z,37.30
2018-03-02T13:30:28.318Z,37.27
2018-03-02T13:33:15.868Z,40.70
2018-03-02T13:35:44.982Z,40.70
2018-03-02T13:38:14.091Z,38.03
2018-03-02T13:41:00.872Z,38.63
2018-03-02T13:43:29.991Z,37.87
2018-03-02T13:45:59.080Z,36.00
2018-03-02T13:48:46.645Z,35.33
2018-03-02T13:51:15.754Z,34.80
2018-03-02T13:53:45.662Z,38.23
2018-03-02T13:56:32.423Z,37.43
2018-03-02T13:59:01.565Z,36.20
2018-03-02T14:01:30.685Z,39.03
2018-03-02T14:04:18.182Z,39.40
2018-03-02T14:06:47.299Z,35.93
2018-03-02T14:09:17.185Z,36.50
2018-03-02T14:11:46.299Z,37.80
2018-03-02T14:14:15.415Z,38.30
2018-03-02T14:16:45.313Z,39.43
2018-03-02T14:19:14.458Z,36.57
2018-03-02T14:21:44.387Z,35.23
2018-03-02T14:24:13.506Z,35.93
2018-03-02T14:26:43.370Z,35.00
2018-03-02T14:29:12.519Z,36.50
2018-03-02T14:31:41.622Z,38.00
2018-03-02T14:34:10.747Z,34.63
2018-03-02T14:36:40.609Z,39.97
2018-03-02T14:39:09.731Z,38.83
2018-03-02T14:41:38.867Z,36.33
2018-03-02T14:44:07.969Z,37.63
2018-03-02T14:46:37.094Z,36.83
2018-03-02T14:49:06.169Z,37.67
2018-03-02T14:51:35.382Z,39.50
2018-03-02T14:54:04.427Z,40.63
2018-03-02T14:56:34.318Z,35.10
2018-03-02T14:59:03.428Z,34.63
2018-03-02T15:01:32.541Z,37.63
2018-03-02T15:04:02.401Z,40.97
2018-03-02T15:06:31.524Z,38.20
2018-03-02T15:09:00.644Z,37.93
2018-03-02T15:11:30.537Z,39.10
2018-03-02T15:13:59.630Z,39.53
2018-03-02T15:16:29.549Z,44.03
2018-03-02T15:18:58.666Z,41.50
2018-03-02T15:21:28.531Z,43.70
2018-03-02T15:23:57.640Z,43.37
2018-03-02T15:26:26.762Z,42.27
2018-03-02T15:28:55.851Z,40.03
2018-03-02T15:31:24.956Z,41.77
2018-03-02T15:33:54.059Z,42.93
2018-03-02T15:36:23.161Z,43.90
2018-03-02T15:38:52.264Z,42.47
2018-03-02T15:41:22.156Z,44.27
2018-03-02T15:43:51.268Z,43.20
2018-03-02T15:46:20.347Z,45.37
2018-03-02T15:48:49.508Z,46.10
2018-03-02T15:51:18.664Z,44.07
2018-03-02T15:53:48.602Z,47.00
2018-03-02T15:56:18.500Z,45.97
2018-03-02T15:58:48.411Z,47.17
2018-03-02T16:01:18.284Z,44.90
2018-03-02T16:03:47.368Z,45.83
2018-03-02T16:06:16.493Z,44.53
2018-03-02T16:08:45.599Z,47.40
2018-03-02T16:11:14.698Z,47.73
2018-03-02T16:13:43.830Z,47.70
2018-03-02T16:16:12.926Z,54.20
2018-03-02T16:18:42.047Z,55.47
2018-03-02T16:21:11.143Z,49.33
2018-03-02T16:23:40.288Z,50.53
2018-03-02T16:26:09.437Z,66.67
2018-03-02T16:28:38.563Z,66.57
2018-03-02T16:31:07.679Z,55.60
2018-03-02T16:33:37.587Z,49.53
2018-03-02T16:36:06.704Z,50.37
2018-03-02T16:38:36.609Z,51.83
2018-03-02T16:41:06.531Z,52.00
2018-03-02T16:43:36.425Z,53.87
2018-03-02T16:46:05.541Z,53.40
2018-03-02T16:48:35.462Z,53.97
2018-03-02T16:51:04.585Z,60.07
2018-03-02T16:53:34.581Z,53.90
2018-03-02T16:56:03.703Z,53.20
2018-03-02T16:58:32.798Z,52.70
2018-03-02T17:01:01.936Z,53.00
2018-03-02T17:03:31.082Z,50.77
2018-03-02T17:06:00.203Z,51.40
2018-03-02T17:08:29.366Z,54.00
2018-03-02T17:10:58.472Z,52.70
2018-03-02T17:13:27.597Z,52.27
2018-03-02T17:15:56.735Z,55.03
2018-03-02T17:18:26.625Z,55.30
2018-03-02T17:20:55.806Z,54.03
2018-03-02T17:23:24.914Z,57.10
2018-03-02T17:25:54.024Z,63.90
2018-03-02T17:28:23.179Z,63.37
2018-03-02T17:30:52.315Z,58.30
2018-03-02T17:33:22.957Z,55.40
2018-03-02T17:35:52.093Z,57.37
2018-03-02T17:38:21.261Z,61.47
2018-03-02T17:40:51.133Z,55.47
2018-03-02T17:43:20.284Z,62.30
2018-03-02T17:45:50.167Z,70.10
2018-03-02T17:48:19.287Z,65.43
2018-03-02T17:50:48.457Z,61.03
2018-03-02T17:53:17.538Z,59.10
2018-03-02T17:55:46.675Z,55.93
2018-03-02T17:58:16.539Z,57.90
2018-03-02T18:00:45.682Z,55.43
2018-03-02T18:03:15.591Z,113.97
2018-03-02T18:05:44.774Z,80.83
2018-03-02T18:08:13.856Z,68.23
2018-03-02T18:10:43.757Z,59.33
2018-03-02T18:13:12.839Z,58.80
2018-03-02T18:15:41.980Z,60.00
2018-03-02T18:18:11.118Z,58.13
2018-03-02T18:20:40.238Z,55.97
2018-03-02T18:23:09.390Z,56.87
2018-03-02T18:25:39.287Z,55.77
2018-03-02T18:28:08.417Z,58.93
2018-03-02T18:30:38.322Z,60.00
2018-03-02T18:33:08.191Z,84.00
2018-03-02T18:35:37.336Z,84.07
2018-03-02T18:38:07.240Z,61.73
2018-03-02T18:40:36.348Z,59.87
2018-03-02T18:43:06.219Z,58.30
2018-03-02T18:45:36.857Z,61.23
2018-03-02T18:48:05.971Z,60.17
2018-03-02T18:50:35.094Z,68.77
2018-03-02T18:53:04.219Z,65.03
2018-03-02T18:55:33.374Z,75.73
2018-03-02T18:58:03.273Z,68.87
2018-03-02T19:00:32.394Z,70.10
2018-03-02T19:03:01.527Z,61.27
2018-03-02T19:05:30.706Z,66.27
2018-03-02T19:07:59.816Z,63.53
2018-03-02T19:10:28.928Z,60.73
2018-03-02T19:12:58.075Z,62.40
2018-03-02T19:15:27.207Z,61.03
2018-03-02T19:17:56.345Z,59.60
2018-03-02T19:20:25.502Z,73.20
2018-03-02T19:22:54.618Z,84.70
2018-03-02T19:25:23.736Z,79.00
2018-03-02T19:27:52.863Z,67.00
2018-03-02T19:30:22.750Z,71.40
2018-03-02T19:32:51.849Z,68.20
2018-03-02T19:35:21.774Z,59.50
2018-03-02T19:37:51.658Z,58.17
2018-03-02T19:40:20.829Z,59.10
2018-03-02T19:42:49.970Z,61.23
2018-03-02T19:45:19.134Z,59.20
2018-03-02T19:47:48.285Z,62.10
2018-03-02T19:50:18.205Z,60.37
2018-03-02T19:52:48.103Z,62.07
2018-03-02T19:55:18.150Z,60.53
2018-03-02T19:57:47.272Z,59.67
2018-03-02T20:00:16.407Z,62.87
2018-03-02T20:02:45.561Z,63.00
2018-03-02T20:05:14.684Z,61.23
2018-03-02T20:07:43.813Z,60.37
2018-03-02T20:10:13.703Z,60.40
2018-03-02T20:12:44.396Z,69.83
2018-03-02T20:15:13.507Z,61.87
2018-03-02T20:17:42.657Z,66.13
2018-03-02T20:20:12.545Z,67.37
2018-03-02T20:22:41.672Z,62.30
2018-03-02T20:25:11.171Z,60.83
2018-03-02T20:27:40.347Z,59.83
2018-03-02T20:30:09.498Z,61.93
2018-03-02T20:32:38.704Z,63.37
2018-03-02T20:35:07.871Z,61.33
2018-03-02T20:37:37.773Z,63.27
2018-03-02T20:40:06.900Z,63.27
2018-03-02T20:42:36.020Z,58.27
2018-03-02T20:45:05.175Z,62.07
2018-03-02T20:47:35.117Z,59.93
2018-03-02T20:50:04.252Z,62.87
2018-03-02T20:52:33.458Z,61.93
2018-03-02T20:55:02.540Z,60.70
2018-03-02T20:57:31.668Z,63.90
2018-03-02T21:00:01.579Z,63.30
2018-03-02T21:02:31.491Z,57.30
2018-03-02T21:05:02.070Z,62.67
2018-03-02T21:07:31.191Z,63.63
2018-03-02T21:10:00.334Z,63.63
2018-03-02T21:12:31.312Z,60.83
2018-03-02T21:15:00.474Z,63.90
2018-03-02T21:17:29.629Z,61.23
2018-03-02T21:19:58.738Z,62.03
2018-03-02T21:22:27.896Z,60.67
2018-03-02T21:24:57.039Z,58.10
2018-03-02T21:27:26.175Z,65.57
2018-03-02T21:29:56.354Z,64.77
2018-03-02T21:32:25.454Z,59.70
2018-03-02T21:34:55.366Z,62.80
2018-03-02T21:37:24.475Z,64.87
2018-03-02T21:39:54.391Z,66.50
2018-03-02T21:42:24.291Z,64.30
2018-03-02T21:44:53.416Z,65.47
2018-03-02T21:47:22.535Z,60.90
2018-03-02T21:49:51.662Z,66.30
2018-03-02T21:52:20.749Z,64.27
2018-03-02T21:54:49.927Z,66.77
2018-03-02T21:57:19.041Z,62.77
2018-03-02T21:59:48.914Z,59.80
2018-03-02T22:02:18.059Z,64.57
2018-03-02T22:04:47.181Z,67.20
2018-03-02T22:07:17.086Z,66.30
2018-03-02T22:09:46.201Z,66.57
2018-03-02T22:12:16.092Z,65.10
2018-03-02T22:14:45.202Z,64.90
2018-03-02T22:17:14.315Z,64.77
2018-03-02T22:19:43.421Z,64.70
2018-03-02T22:22:12.560Z,63.17
2018-03-02T22:24:41.674Z,65.50
2018-03-02T22:27:10.813Z,67.30
2018-03-02T22:29:39.935Z,66.87
2018-03-02T22:32:09.057Z,63.20
2018-03-02T22:34:38.177Z,65.83
2018-03-02T22:37:08.073Z,61.53
2018-03-02T22:39:37.183Z,68.77
2018-03-02T22:42:06.286Z,63.70
2018-03-02T22:44:36.175Z,65.63
2018-03-02T22:47:05.302Z,70.20
2018-03-02T22:49:35.189Z,64.80
2018-03-02T22:52:04.330Z,67.43
2018-03-02T22:54:33.423Z,65.77
2018-03-02T22:57:02.561Z,66.10
2018-03-02T22:59:31.666Z,66.07
2018-03-02T23:02:00.812Z,65.60
2018-03-02T23:04:29.939Z,65.70
2018-03-02T23:06:59.061Z,64.90
2018-03-02T23:09:28.184Z,64.97
2018-03-02T23:11:58.083Z,65.77
2018-03-02T23:14:27.230Z,67.23
2018-03-02T23:16:56.316Z,65.87
2018-03-02T23:19:25.452Z,66.77
2018-03-02T23:21:54.594Z,63.17
2018-03-02T23:24:23.721Z,64.23
2018-03-02T23:26:52.813Z,63.70
2018-03-02T23:29:21.914Z,64.40
2018-03-02T23:31:52.478Z,62.60
2018-03-02T23:34:21.598Z,63.20
2018-03-02T23:36:50.712Z,65.13
2018-03-02T23:39:20.558Z,61.63
2018-03-02T23:41:49.687Z,63.73
2018-03-02T23:44:18.774Z,60.60
2018-03-02T23:46:47.896Z,59.80
2018-03-02T23:49:17.745Z,64.07
2018-03-02T23:51:47.631Z,63.70
2018-03-02T23:54:17.554Z,65.20
2018-03-02T23:56:47.456Z,65.77
2018-03-02T23:59:17.327Z,66.10
